Time;durP1;ratioP1;P1;durP2;ratioP2;P2;SDS_P1;SDS_P2;PMS_P1;PMS_P2;Temp;Humidity;BMP_temperature;BMP_pressure;BME280_temperature;BME280_humidity;BME280_pressure;Samples;Min_cycle;Max_cycle;Signal;HPM_P1;HPM_P2
2024/02/21 00:00:06;;;;;;;7.57;3.30;;;;;;;4.73;88.79;100795.44;5091315;28;20257;-62
2024/02/21 00:02:35;;;;;;;12.13;3.77;;;;;;;4.76;88.23;100794.66;5093173;28;20657;-60
2024/02/21 00:05:04;;;;;;;10.20;4.27;;;;;;;4.75;88.65;100793.81;5092226;28;20284;-61
2024/02/21 00:07:32;;;;;;;9.10;3.80;;;;;;;4.77;88.71;100791.28;5092144;28;20292;-61
2024/02/21 00:10:00;;;;;;;9.60;3.40;;;;;;;4.78;88.74;100787.91;5089266;28;20710;-60
2024/02/21 00:12:28;;;;;;;14.63;5.30;;;;;;;4.79;88.88;100795.63;5089873;28;20257;-60
2024/02/21 00:14:56;;;;;;;10.93;4.63;;;;;;;4.82;88.11;100788.03;5087822;28;20631;-60
2024/02/21 00:17:26;;;;;;;6.40;3.80;;;;;;;4.81;88.99;100788.84;5092243;28;20212;-60
2024/02/21 00:19:55;;;;;;;10.90;4.00;;;;;;;4.81;89.19;100783.72;5091108;28;20208;-61
2024/02/21 00:22:23;;;;;;;11.20;3.57;;;;;;;4.83;89.18;100792.31;5089315;28;20246;-61
2024/02/21 00:24:51;;;;;;;11.13;4.07;;;;;;;4.88;89.33;100786.44;5092439;28;20228;-61
2024/02/21 00:27:19;;;;;;;10.13;4.10;;;;;;;4.88;88.36;100783.88;5091990;28;20254;-60
2024/02/21 00:29:47;;;;;;;9.17;3.67;;;;;;;4.83;88.63;100784.63;5088341;28;20653;-60
2024/02/21 00:32:15;;;;;;;8.33;4.17;;;;;;;4.79;89.49;100779.44;5087459;28;20208;-60
2024/02/21 00:34:44;;;;;;;9.17;4.00;;;;;;;4.79;90.04;100777.75;5089772;28;20595;-61
2024/02/21 00:37:13;;;;;;;11.93;4.40;;;;;;;4.83;90.30;100778.69;5091171;28;20220;-64
2024/02/21 00:39:42;;;;;;;7.80;3.97;;;;;;;4.86;89.35;100773.66;5091446;28;20207;-64
2024/02/21 00:42:10;;;;;;;11.83;3.97;;;;;;;4.84;89.74;100778.69;5091451;28;20246;-64
2024/02/21 00:44:38;;;;;;;8.00;3.87;;;;;;;4.84;89.69;100775.28;5091933;28;20204;-62
2024/02/21 00:47:06;;;;;;;9.13;4.47;;;;;;;4.81;90.22;100778.63;5092472;28;20196;-64
2024/02/21 00:49:34;;;;;;;9.63;4.10;;;;;;;4.79;90.65;100767.53;5088947;28;20653;-60
2024/02/21 00:52:02;;;;;;;11.83;4.70;;;;;;;4.80;90.35;100763.28;5103196;28;20640;-60
2024/02/21 00:54:32;;;;;;;10.43;4.27;;;;;;;4.79;90.42;100764.97;5090024;28;20283;-60
2024/02/21 00:57:14;;;;;;;9.03;4.40;;;;;;;4.79;90.99;100753.91;5082671;28;20292;-60
2024/02/21 00:59:42;;;;;;;10.90;4.70;;;;;;;4.80;91.08;100761.59;5092224;28;20641;-60
2024/02/21 01:02:10;;;;;;;9.83;4.07;;;;;;;4.82;90.93;100767.59;5091157;28;20261;-59
2024/02/21 01:04:38;;;;;;;10.70;4.10;;;;;;;4.85;91.06;100765.09;5091425;28;20287;-60
2024/02/21 01:07:06;;;;;;;9.97;4.73;;;;;;;4.88;90.12;100755.78;5088940;28;20254;-62
2024/02/21 01:09:36;;;;;;;7.03;4.10;;;;;;;4.88;90.82;100748.13;5087472;28;20234;-67
2024/02/21 01:12:04;;;;;;;10.43;5.23;;;;;;;4.87;91.48;100754.06;5087114;28;20658;-60
2024/02/21 01:14:32;;;;;;;11.90;5.10;;;;;;;4.81;91.05;100753.09;5091522;28;20282;-60
2024/02/21 01:17:01;;;;;;;10.60;4.77;;;;;;;4.79;92.00;100747.09;5088051;28;20561;-60
2024/02/21 01:19:29;;;;;;;13.50;4.87;;;;;;;4.80;92.47;100746.25;5092393;28;20222;-58
2024/02/21 01:21:57;;;;;;;11.87;4.60;;;;;;;4.79;92.11;100742.00;5091092;28;20201;-60
2024/02/21 01:24:25;;;;;;;9.73;4.60;;;;;;;4.80;92.68;100743.72;5088140;28;20212;-60
2024/02/21 01:26:54;;;;;;;9.87;4.33;;;;;;;4.79;92.78;100747.09;5091856;28;20193;-61
2024/02/21 01:29:22;;;;;;;10.03;5.33;;;;;;;4.78;93.72;100742.81;5089651;28;20211;-60
2024/02/21 01:31:50;;;;;;;8.47;4.50;;;;;;;4.79;93.77;100744.56;5078760;28;20641;-60
2024/02/21 01:34:18;;;;;;;12.57;5.00;;;;;;;4.82;94.46;100744.63;5091314;28;20248;-69
2024/02/21 01:36:47;;;;;;;11.63;4.87;;;;;;;4.81;94.19;100747.97;5090841;28;20299;-64
2024/02/21 01:39:14;;;;;;;12.13;5.13;;;;;;;4.84;94.35;100745.50;5091041;28;20205;-61
2024/02/21 01:41:42;;;;;;;11.37;4.97;;;;;;;4.84;94.95;100735.28;5081616;28;20209;-59
2024/02/21 01:44:12;;;;;;;8.87;4.37;;;;;;;4.85;94.56;100734.47;5088745;28;20612;-60
2024/02/21 01:46:40;;;;;;;12.20;5.27;;;;;;;4.90;95.00;100738.81;5089810;28;20535;-60
2024/02/21 01:49:11;;;;;;;12.03;5.43;;;;;;;4.89;95.57;100727.72;5090885;28;20668;-60
2024/02/21 01:51:40;;;;;;;13.17;5.60;;;;;;;4.90;96.20;100739.69;5090711;28;20204;-60
2024/02/21 01:54:08;;;;;;;13.73;5.83;;;;;;;4.92;95.79;100734.59;5091121;28;20204;-60
2024/02/21 01:56:36;;;;;;;12.43;5.67;;;;;;;4.95;96.67;100734.69;5090418;28;20217;-62
2024/02/21 01:59:04;;;;;;;10.70;5.40;;;;;;;4.98;96.66;100729.66;5078656;28;20212;-61
2024/02/21 02:01:34;;;;;;;12.47;6.17;;;;;;;5.02;96.25;100737.41;5083871;28;20201;-61
2024/02/21 02:04:05;;;;;;;11.37;6.27;;;;;;;5.01;95.80;100732.28;5090667;28;20196;-60
2024/02/21 02:06:33;;;;;;;12.30;6.07;;;;;;;5.05;96.08;100736.63;5090752;28;20759;-60
2024/02/21 02:09:01;;;;;;;12.53;6.47;;;;;;;5.02;95.95;100727.19;5089811;28;20220;-60
2024/02/21 02:11:32;;;;;;;14.63;7.60;;;;;;;4.99;95.37;100731.38;5086018;28;20718;-61
2024/02/21 02:14:01;;;;;;;13.40;6.43;;;;;;;4.96;96.15;100728.72;5091069;28;20569;-64
2024/02/21 02:16:29;;;;;;;14.57;7.27;;;;;;;4.95;96.30;100727.88;5087853;28;20212;-60
2024/02/21 02:18:58;;;;;;;14.30;7.20;;;;;;;4.95;96.80;100724.47;5083905;28;20239;-60
2024/02/21 02:21:30;;;;;;;11.10;6.47;;;;;;;4.94;96.36;100717.63;5094038;28;20564;-60
2024/02/21 02:24:00;;;;;;;10.90;6.03;;;;;;;4.96;96.72;100724.47;5090788;28;20634;-59
2024/02/21 02:26:28;;;;;;;12.80;6.50;;;;;;;4.98;97.10;100734.75;5084258;28;20215;-61
2024/02/21 02:28:56;;;;;;;18.67;6.53;;;;;;;4.98;96.80;100719.44;5090311;28;20677;-66
2024/02/21 02:31:24;;;;;;;12.37;6.73;;;;;;;4.99;97.50;100722.00;5081789;28;20204;-60
2024/02/21 02:33:52;;;;;;;14.67;6.77;;;;;;;5.00;96.86;100717.75;5090552;28;20661;-60
2024/02/21 02:36:20;;;;;;;12.03;6.20;;;;;;;5.00;96.60;100717.75;5090115;28;20243;-60
2024/02/21 02:38:48;;;;;;;17.10;6.87;;;;;;;5.02;97.04;100721.22;5087819;28;20244;-60
2024/02/21 02:41:18;;;;;;;11.00;6.27;;;;;;;5.01;97.17;100720.38;5091747;28;20204;-61
2024/02/21 02:43:46;;;;;;;14.40;6.07;;;;;;;5.03;96.54;100718.69;5081583;28;20197;-60
2024/02/21 02:46:14;;;;;;;12.27;5.93;;;;;;;5.05;96.98;100716.19;5086363;28;20287;-61
2024/02/21 02:48:42;;;;;;;12.03;6.17;;;;;;;5.02;96.13;100716.09;5079214;28;20228;-60
2024/02/21 02:51:10;;;;;;;11.10;5.80;;;;;;;5.00;96.84;100710.09;5090216;28;20204;-61
2024/02/21 02:53:38;;;;;;;11.33;5.60;;;;;;;5.02;97.19;100706.75;5090319;28;20200;-61
2024/02/21 02:56:07;;;;;;;11.37;5.70;;;;;;;5.07;97.28;100711.94;5087117;28;20200;-60
2024/02/21 02:58:36;;;;;;;15.17;6.57;;;;;;;5.08;96.79;100706.91;5090108;28;20585;-61
2024/02/21 03:01:04;;;;;;;14.27;6.70;;;;;;;5.07;96.30;100705.16;5090944;28;20243;-61
2024/02/21 03:03:32;;;;;;;13.50;6.37;;;;;;;5.05;96.45;100704.28;5090312;28;20208;-61
2024/02/21 03:06:01;;;;;;;10.80;6.23;;;;;;;5.06;96.99;100702.56;5093760;28;20669;-62
2024/02/21 03:08:29;;;;;;;12.87;6.47;;;;;;;5.07;97.16;100709.41;5093030;28;20193;-61
2024/02/21 03:10:56;;;;;;;16.33;7.00;;;;;;;5.11;97.43;100710.31;5093475;28;20231;-62
2024/02/21 03:13:25;;;;;;;12.03;6.73;;;;;;;5.09;97.48;100713.72;5093426;28;20236;-62
2024/02/21 03:15:54;;;;;;;12.13;6.37;;;;;;;5.10;96.71;100709.47;5088278;28;20193;-61
2024/02/21 03:18:22;;;;;;;11.20;6.37;;;;;;;5.09;96.80;100713.72;5088389;28;20262;-66
2024/02/21 03:20:50;;;;;;;13.17;6.87;;;;;;;5.09;96.24;100707.75;5090120;28;20212;-62
2024/02/21 03:23:18;;;;;;;15.50;7.93;;;;;;;5.10;97.27;100714.56;5093318;28;20215;-59
2024/02/21 03:25:46;;;;;;;13.73;7.00;;;;;;;5.10;97.04;100706.91;5096961;28;20201;-61
2024/02/21 03:28:14;;;;;;;13.53;6.53;;;;;;;5.09;96.37;100705.19;5093264;28;20199;-60
2024/02/21 03:30:42;;;;;;;11.77;7.07;;;;;;;5.08;96.57;100706.00;5091639;28;20250;-62
2024/02/21 03:33:12;;;;;;;9.80;6.20;;;;;;;5.06;96.36;100702.56;5093293;28;20229;-61
2024/02/21 03:35:40;;;;;;;14.13;6.03;;;;;;;5.02;97.10;100696.53;5082748;28;20208;-61
2024/02/21 03:38:08;;;;;;;12.17;6.43;;;;;;;4.99;95.94;100696.47;5092074;28;20219;-60
2024/02/21 03:40:36;;;;;;;12.30;6.10;;;;;;;4.97;96.12;100698.16;5092715;28;20205;-68
2024/02/21 03:43:04;;;;;;;12.13;6.27;;;;;;;4.93;96.68;100696.31;5089497;28;20650;-61
2024/02/21 03:45:32;;;;;;;10.83;6.13;;;;;;;4.94;96.99;100697.22;5100556;28;20205;-64
2024/02/21 03:48:00;;;;;;;12.60;6.33;;;;;;;4.96;97.15;100700.66;5093252;28;20542;-63
2024/02/21 03:50:30;;;;;;;11.87;6.27;;;;;;;4.99;97.11;100696.47;5092868;28;20283;-62
2024/02/21 03:52:58;;;;;;;12.03;6.33;;;;;;;5.01;96.15;100704.19;5092979;28;20200;-60
2024/02/21 03:55:26;;;;;;;14.40;4.93;;;;;;;5.00;95.77;100705.00;5080693;28;20581;-60
2024/02/21 03:57:54;;;;;;;10.10;5.40;;;;;;;5.02;96.04;100699.09;5095455;28;20221;-62
2024/02/21 04:00:23;;;;;;;9.40;5.43;;;;;;;5.05;95.36;100706.81;5092595;28;20200;-61
2024/02/21 04:02:51;;;;;;;9.27;5.20;;;;;;;5.07;95.78;100700.03;5092474;28;20209;-63
2024/02/21 04:05:19;;;;;;;9.20;5.77;;;;;;;5.11;94.63;100700.09;5092223;28;20200;-60
2024/02/21 04:07:48;;;;;;;17.87;6.67;;;;;;;5.13;95.14;100701.88;5092728;28;20677;-62
2024/02/21 04:10:16;;;;;;;10.47;5.60;;;;;;;5.14;95.37;100695.06;5091615;28;20216;-61
2024/02/21 04:12:44;;;;;;;11.63;5.63;;;;;;;5.12;95.59;100695.06;5085973;28;20240;-62
2024/02/21 04:15:12;;;;;;;13.67;7.23;;;;;;;5.14;95.67;100685.72;5091639;28;20212;-65
2024/02/21 04:17:40;;;;;;;10.60;6.43;;;;;;;5.17;95.78;100687.47;5092392;28;20227;-62
2024/02/21 04:20:15;;;;;;;15.47;7.60;;;;;;;5.15;95.52;100692.53;5090327;28;20204;-60
2024/02/21 04:22:44;;;;;;;15.00;8.00;;;;;;;5.10;95.72;100686.47;5090554;28;20649;-62
2024/02/21 04:25:14;;;;;;;11.30;6.63;;;;;;;5.06;96.57;100688.09;5092162;28;20211;-63
2024/02/21 04:27:42;;;;;;;14.70;6.93;;;;;;;5.05;97.26;100681.28;5090193;28;20288;-61
2024/02/21 04:30:10;;;;;;;17.03;6.83;;;;;;;5.04;97.28;100678.69;5092801;28;20201;-61
2024/02/21 04:32:39;;;;;;;14.97;7.40;;;;;;;5.04;97.21;100679.56;5091785;28;20254;-61
2024/02/21 04:35:08;;;;;;;13.60;7.97;;;;;;;5.06;98.15;100679.59;5091622;28;20290;-61
2024/02/21 04:37:36;;;;;;;17.77;8.33;;;;;;;5.07;97.46;100673.63;5089619;28;20208;-60
2024/02/21 04:40:05;;;;;;;24.73;9.47;;;;;;;5.05;97.42;100675.31;5091520;28;20296;-64
2024/02/21 04:42:34;;;;;;;16.90;9.00;;;;;;;5.04;97.89;100678.69;5091312;28;20657;-62
2024/02/21 04:45:02;;;;;;;14.10;8.30;;;;;;;5.06;98.69;100679.59;5091095;28;20201;-62
2024/02/21 04:47:30;;;;;;;17.57;9.77;;;;;;;5.08;98.15;100673.69;5084318;28;20243;-61
2024/02/21 04:49:58;;;;;;;17.57;8.97;;;;;;;5.11;98.98;100680.53;5086708;28;20212;-64
2024/02/21 04:52:27;;;;;;;16.63;9.53;;;;;;;5.14;98.91;100680.59;5092422;28;20211;-61
2024/02/21 04:54:55;;;;;;;17.83;9.10;;;;;;;5.17;98.12;100677.25;5091963;28;20193;-61
2024/02/21 04:57:23;;;;;;;13.10;9.13;;;;;;;5.18;98.84;100673.88;5091529;28;20215;-62
2024/02/21 04:59:52;;;;;;;19.13;9.73;;;;;;;5.21;98.94;100677.34;5091178;28;20220;-64
2024/02/21 05:02:22;;;;;;;20.00;11.13;;;;;;;5.22;98.00;100678.19;5089869;28;20274;-61
2024/02/21 05:04:50;;;;;;;17.20;8.87;;;;;;;5.21;98.53;100674.78;5085423;28;20201;-61
2024/02/21 05:07:19;;;;;;;17.17;9.77;;;;;;;5.17;97.87;100665.34;5090516;28;20208;-60
2024/02/21 05:09:47;;;;;;;19.77;11.00;;;;;;;5.19;98.42;100666.25;5081286;28;20641;-61
2024/02/21 05:12:15;;;;;;;21.80;9.67;;;;;;;5.20;98.16;100673.06;5090600;28;21003;-62
2024/02/21 05:14:43;;;;;;;19.50;10.27;;;;;;;5.20;98.41;100673.06;5091330;28;20541;-64
2024/02/21 05:17:12;;;;;;;17.03;9.20;;;;;;;5.18;98.99;100667.06;5091159;28;20204;-61
2024/02/21 05:19:40;;;;;;;17.73;9.83;;;;;;;5.18;98.91;100672.16;5090604;28;20212;-61
2024/02/21 05:22:08;;;;;;;19.53;10.17;;;;;;;5.17;98.69;100665.34;5085984;28;20714;-61
2024/02/21 05:24:37;;;;;;;14.60;9.87;;;;;;;5.18;98.54;100681.53;5088162;28;20200;-62
2024/02/21 05:27:05;;;;;;;15.83;9.87;;;;;;;5.18;98.86;100666.19;5090826;28;20200;-61
2024/02/21 05:29:35;;;;;;;22.77;11.60;;;;;;;5.14;98.75;100670.38;5077470;28;20299;-63
2024/02/21 05:32:03;;;;;;;20.13;10.43;;;;;;;5.11;99.71;100670.31;5084827;28;20223;-65
2024/02/21 05:34:32;;;;;;;20.70;10.40;;;;;;;5.11;99.35;100664.34;5088634;28;20552;-60
2024/02/21 05:37:00;;;;;;;24.03;11.70;;;;;;;5.09;99.69;100672.00;5092163;28;20207;-61
2024/02/21 05:39:29;;;;;;;22.90;11.53;;;;;;;5.11;99.64;100664.34;5090486;28;20568;-61
2024/02/21 05:41:57;;;;;;;17.70;10.57;;;;;;;5.13;100.00;100655.91;5086453;28;20560;-62
2024/02/21 05:44:26;;;;;;;15.17;10.23;;;;;;;5.15;100.00;100667.00;5091820;28;20849;-60
2024/02/21 05:46:55;;;;;;;19.90;10.87;;;;;;;5.17;99.37;100659.38;5091398;28;20214;-60
2024/02/21 05:49:23;;;;;;;17.90;10.83;;;;;;;5.21;100.00;100664.56;5084533;28;20208;-61
2024/02/21 05:51:52;;;;;;;21.30;10.33;;;;;;;5.23;99.77;100650.16;5090334;28;20201;-61
2024/02/21 05:54:20;;;;;;;23.73;10.93;;;;;;;5.23;98.75;100650.16;5089783;28;22873;-60
2024/02/21 05:56:48;;;;;;;16.83;9.57;;;;;;;5.24;98.74;100645.91;5094600;28;20197;-61
2024/02/21 05:59:16;;;;;;;21.63;11.37;;;;;;;5.24;98.95;100645.91;5089132;28;20673;-61
2024/02/21 06:01:44;;;;;;;24.23;11.50;;;;;;;5.28;98.83;100652.78;5093856;28;20247;-60
2024/02/21 06:04:13;;;;;;;20.80;11.53;;;;;;;5.29;99.11;100650.25;5091585;28;20209;-61
2024/02/21 06:06:43;;;;;;;20.47;11.13;;;;;;;5.35;98.82;100651.22;5091784;28;20236;-62
2024/02/21 06:09:15;;;;;;;18.80;11.63;;;;;;;5.35;98.37;100653.78;5077395;28;20220;-64
2024/02/21 06:11:46;;;;;;;20.67;12.47;;;;;;;5.38;98.78;100656.41;5086309;28;20268;-61
2024/02/21 06:14:15;;;;;;;19.40;11.80;;;;;;;5.38;98.38;100654.69;5086074;28;20204;-65
2024/02/21 06:16:44;;;;;;;15.83;10.47;;;;;;;5.41;98.29;100656.44;5085720;28;20207;-62
2024/02/21 06:19:12;;;;;;;19.83;11.80;;;;;;;5.46;98.23;100654.84;5092446;28;20297;-64
2024/02/21 06:21:40;;;;;;;23.73;11.67;;;;;;;5.50;98.49;100641.28;5086924;28;20236;-65
2024/02/21 06:24:10;;;;;;;24.73;12.47;;;;;;;5.50;97.72;100648.94;5088708;28;20204;-62
2024/02/21 06:26:41;;;;;;;22.60;11.60;;;;;;;5.51;98.47;100651.53;5090458;28;20205;-62
2024/02/21 06:29:10;;;;;;;28.23;12.03;;;;;;;5.53;97.78;100649.88;5083443;28;20547;-67
2024/02/21 06:31:40;;;;;;;27.67;11.80;;;;;;;5.55;97.65;100642.22;5088452;28;20216;-65
2024/02/21 06:34:11;;;;;;;25.57;12.17;;;;;;;5.54;97.71;100648.16;5089973;28;21139;-64
2024/02/21 06:36:40;;;;;;;21.67;11.57;;;;;;;5.59;98.11;100656.78;5088607;28;20213;-64
2024/02/21 06:39:11;;;;;;;22.53;12.00;;;;;;;5.61;97.04;100652.56;5091445;28;20224;-65
2024/02/21 06:41:42;;;;;;;23.87;11.73;;;;;;;5.57;97.66;100651.66;5094859;28;20208;-64
2024/02/21 06:44:13;;;;;;;20.60;11.17;;;;;;;5.60;97.42;100655.97;5089492;28;20196;-66
2024/02/21 06:46:44;;;;;;;20.17;10.87;;;;;;;5.61;97.92;100652.56;5091495;28;20274;-65
2024/02/21 06:49:16;;;;;;;24.67;12.47;;;;;;;5.67;97.82;100656.91;5091046;28;20672;-65
2024/02/21 06:51:45;;;;;;;23.33;14.47;;;;;;;5.66;96.73;100660.31;5091046;28;20205;-65
2024/02/21 06:54:13;;;;;;;23.50;12.07;;;;;;;5.63;97.11;100661.09;5090177;28;20201;-62
2024/02/21 06:56:43;;;;;;;25.00;13.33;;;;;;;5.60;97.20;100661.06;5086158;28;20239;-69
2024/02/21 06:59:15;;;;;;;29.30;13.40;;;;;;;5.59;96.83;100669.56;5087770;28;20213;-62
2024/02/21 07:01:46;;;;;;;26.77;12.80;;;;;;;5.59;97.89;100661.88;5091234;28;20196;-64
2024/02/21 07:04:14;;;;;;;30.27;12.93;;;;;;;5.57;97.77;100655.91;5086967;28;20212;-66
2024/02/21 07:06:43;;;;;;;25.50;13.90;;;;;;;5.52;97.24;100658.38;5093706;28;20684;-68
2024/02/21 07:09:11;;;;;;;30.67;13.17;;;;;;;5.54;97.13;100660.94;5087794;28;20228;-63
2024/02/21 07:11:40;;;;;;;20.93;12.20;;;;;;;5.55;98.10;100660.97;5087921;28;20236;-64
2024/02/21 07:14:09;;;;;;;22.63;11.00;;;;;;;5.60;98.23;100658.53;5092020;28;20206;-64
2024/02/21 07:16:37;;;;;;;27.70;12.53;;;;;;;5.65;97.68;100653.47;5091905;28;20204;-64
2024/02/21 07:19:06;;;;;;;22.37;11.70;;;;;;;5.67;97.25;100655.25;5091715;28;20208;-62
2024/02/21 07:21:34;;;;;;;21.37;12.90;;;;;;;5.69;97.36;100652.69;5100077;28;20215;-63
2024/02/21 07:24:02;;;;;;;31.90;13.73;;;;;;;5.71;96.40;100663.81;5093008;28;20192;-66
2024/02/21 07:26:30;;;;;;;26.57;13.53;;;;;;;5.66;97.03;100650.94;5092269;28;20685;-62
2024/02/21 07:29:01;;;;;;;23.43;13.00;;;;;;;5.67;96.94;100650.13;5079540;28;20638;-68
2024/02/21 07:31:30;;;;;;;28.90;13.17;;;;;;;5.72;97.03;100648.50;5093929;28;20197;-71
2024/02/21 07:33:58;;;;;;;25.57;12.83;;;;;;;5.76;97.00;100642.59;5090968;28;20204;-69
2024/02/21 07:36:30;;;;;;;30.03;13.17;;;;;;;5.80;96.55;100644.38;5093873;28;20224;-60
2024/02/21 07:38:58;;;;;;;25.70;12.60;;;;;;;5.82;95.75;100632.50;5093450;28;20204;-59
2024/02/21 07:41:28;;;;;;;25.30;12.47;;;;;;;5.83;96.05;100630.78;5093272;28;20228;-59
2024/02/21 07:43:56;;;;;;;20.43;12.23;;;;;;;5.86;96.61;100637.66;5092458;28;20232;-61
2024/02/21 07:46:24;;;;;;;26.63;12.47;;;;;;;5.89;96.13;100630.03;5093498;28;20236;-60
2024/02/21 07:48:54;;;;;;;24.13;12.00;;;;;;;5.87;96.01;100624.03;5093658;28;20726;-61
2024/02/21 07:51:22;;;;;;;27.37;13.13;;;;;;;5.92;95.94;100623.28;5093141;28;20200;-60
2024/02/21 07:53:50;;;;;;;23.83;12.17;;;;;;;5.94;95.52;100618.22;5093371;28;20205;-61
2024/02/21 07:56:18;;;;;;;25.63;12.63;;;;;;;6.02;95.62;100611.53;5093121;28;20205;-62
2024/02/21 07:58:46;;;;;;;26.23;13.17;;;;;;;6.08;96.13;100598.84;5092792;28;20203;-62
2024/02/21 08:01:19;;;;;;;28.23;13.37;;;;;;;6.18;96.26;100604.94;5093193;28;20573;-57
2024/02/21 08:03:48;;;;;;;23.03;11.50;;;;;;;6.25;94.83;100604.19;5090682;28;20287;-62
2024/02/21 08:06:17;;;;;;;25.63;12.73;;;;;;;6.34;94.88;100600.94;5088706;28;20216;-60
2024/02/21 08:08:45;;;;;;;18.60;11.43;;;;;;;6.43;94.33;100590.81;5092196;28;20238;-63
2024/02/21 08:11:14;;;;;;;21.83;11.50;;;;;;;6.49;94.06;100596.88;5095192;28;20245;-59
2024/02/21 08:13:42;;;;;;;25.87;12.27;;;;;;;6.57;93.16;100593.56;5091377;28;20271;-63
2024/02/21 08:16:12;;;;;;;20.83;12.10;;;;;;;6.63;91.85;100594.53;5088997;28;20200;-61
2024/02/21 08:18:43;;;;;;;21.50;11.87;;;;;;;6.66;92.52;100581.72;5090888;28;20665;-59
2024/02/21 08:21:11;;;;;;;18.57;11.87;;;;;;;6.67;92.04;100585.19;5090566;28;20244;-59
2024/02/21 08:23:42;;;;;;;23.13;12.00;;;;;;;6.68;91.49;100582.63;5089812;28;20616;-60
2024/02/21 08:26:12;;;;;;;22.50;11.50;;;;;;;6.72;91.27;100583.53;5089187;28;20209;-62
2024/02/21 08:28:43;;;;;;;26.43;12.27;;;;;;;6.70;91.61;100583.53;5088701;28;20193;-60
2024/02/21 08:31:19;;;;;;;23.10;12.17;;;;;;;6.71;91.96;100577.53;5088202;28;20278;-61
2024/02/21 08:33:47;;;;;;;22.23;12.20;;;;;;;6.72;91.69;100578.41;5092095;28;20250;-60
2024/02/21 08:36:19;;;;;;;26.80;13.63;;;;;;;6.66;91.42;100566.38;5090232;28;20200;-57
2024/02/21 08:38:49;;;;;;;23.07;12.80;;;;;;;6.70;90.45;100574.94;5091734;28;20205;-58
2024/02/21 08:41:17;;;;;;;22.63;12.30;;;;;;;6.69;91.23;100583.47;5089143;28;20224;-59
2024/02/21 08:43:47;;;;;;;24.73;13.03;;;;;;;6.67;91.76;100583.47;5091722;28;20212;-60
2024/02/21 08:46:15;;;;;;;23.23;14.13;;;;;;;6.63;91.35;100576.59;5088024;28;20231;-64
2024/02/21 08:48:45;;;;;;;24.40;11.70;;;;;;;6.64;92.08;100575.75;5090815;28;20655;-58
2024/02/21 08:51:14;;;;;;;25.90;12.97;;;;;;;6.72;92.28;100569.00;5089837;28;20207;-58
2024/02/21 08:53:43;;;;;;;28.63;12.93;;;;;;;6.88;92.32;100569.19;5089796;28;20224;-58
2024/02/21 08:56:17;;;;;;;25.33;12.87;;;;;;;6.98;90.79;100563.34;5088358;28;20204;-60
2024/02/21 08:58:46;;;;;;;23.70;11.97;;;;;;;7.07;90.57;100563.47;5091832;28;20200;-61
2024/02/21 09:01:17;;;;;;;20.97;12.00;;;;;;;7.16;90.74;100562.69;5084820;28;20212;-59
2024/02/21 09:03:46;;;;;;;22.50;11.90;;;;;;;7.09;88.38;100556.63;5089759;28;20223;-59
2024/02/21 09:06:14;;;;;;;23.10;11.40;;;;;;;7.07;88.80;100560.91;5090185;28;20208;-58
2024/02/21 09:08:42;;;;;;;21.53;11.40;;;;;;;6.99;89.70;100552.25;5091107;28;20227;-58
2024/02/21 09:11:10;;;;;;;24.00;11.80;;;;;;;7.00;90.45;100554.84;5093207;28;20196;-60
2024/02/21 09:13:40;;;;;;;23.17;13.30;;;;;;;7.05;89.39;100557.44;5092169;28;20197;-59
2024/02/21 09:16:08;;;;;;;25.37;12.30;;;;;;;7.04;89.30;100553.19;5087777;28;20203;-59
2024/02/21 09:18:37;;;;;;;27.00;12.27;;;;;;;7.06;90.07;100555.75;5088416;28;20208;-59
2024/02/21 09:21:05;;;;;;;26.77;12.20;;;;;;;7.04;90.11;100553.19;5083277;28;20215;-62
2024/02/21 09:23:34;;;;;;;21.80;11.43;;;;;;;7.03;90.60;100543.75;5079501;28;20580;-59
2024/02/21 09:26:04;;;;;;;21.23;11.57;;;;;;;7.04;91.09;100552.31;5089339;28;20196;-60
2024/02/21 09:28:34;;;;;;;22.73;10.43;;;;;;;7.06;90.73;100543.78;5091140;28;20209;-60
2024/02/21 09:31:04;;;;;;;20.40;10.53;;;;;;;7.08;91.23;100549.81;5091654;28;20208;-63
2024/02/21 09:33:32;;;;;;;21.53;11.33;;;;;;;7.05;90.54;100552.31;5090592;28;20683;-64
2024/02/21 09:36:01;;;;;;;22.80;11.40;;;;;;;7.00;91.40;100554.00;5087938;28;20196;-62
2024/02/21 09:38:28;;;;;;;23.70;10.90;;;;;;;6.97;91.60;100556.50;5084246;28;20211;-65
2024/02/21 09:41:01;;;;;;;21.50;10.87;;;;;;;6.93;91.67;100553.06;5090566;28;20212;-64
2024/02/21 09:43:30;;;;;;;20.47;10.50;;;;;;;6.96;93.24;100552.25;5089432;28;20300;-63
2024/02/21 09:45:59;;;;;;;20.27;10.93;;;;;;;7.00;93.70;100543.75;5090397;28;20257;-64
2024/02/21 09:48:40;;;;;;;18.93;9.90;;;;;;;7.06;92.53;100543.78;5087016;28;20228;-63
2024/02/21 09:51:11;;;;;;;13.93;8.20;;;;;;;7.13;92.41;100544.72;5081015;28;20196;-63
2024/02/21 09:53:41;;;;;;;20.20;8.77;;;;;;;7.16;91.54;100535.34;5088079;28;20200;-64
2024/02/21 09:56:15;;;;;;;18.93;8.40;;;;;;;7.25;92.27;100538.03;5085684;28;20196;-62
2024/02/21 09:58:44;;;;;;;16.60;8.03;;;;;;;7.29;90.68;100528.66;5086896;28;20212;-63
2024/02/21 10:01:12;;;;;;;17.10;8.03;;;;;;;7.29;91.68;100532.91;5087773;28;20204;-62
2024/02/21 10:03:58;;;;;;;17.03;8.30;;;;;;;7.28;90.65;100526.06;5088163;28;20537;-66
2024/02/21 10:06:26;;;;;;;13.80;7.70;;;;;;;7.26;90.44;100524.34;5086311;28;20205;-60
2024/02/21 10:08:54;;;;;;;18.47;7.47;;;;;;;7.25;90.81;100527.78;5090349;28;20200;-60
2024/02/21 10:11:25;;;;;;;16.63;8.07;;;;;;;7.31;90.23;100506.44;5092302;28;20200;-63
2024/02/21 10:14:04;;;;;;;13.03;7.43;;;;;;;7.40;89.66;100518.47;5094116;28;20204;-60
2024/02/21 10:16:33;;;;;;;13.50;7.23;;;;;;;7.43;89.31;100515.94;5093232;28;20201;-60
2024/02/21 10:19:03;;;;;;;15.67;7.53;;;;;;;7.46;88.81;100515.97;5093487;28;20204;-61
2024/02/21 10:21:32;;;;;;;16.27;7.87;;;;;;;7.46;89.24;100515.97;5093452;28;20215;-62
2024/02/21 10:24:00;;;;;;;15.67;7.33;;;;;;;7.49;89.29;100509.19;5091962;28;20204;-62
2024/02/21 10:26:28;;;;;;;13.63;7.07;;;;;;;7.43;88.28;100509.13;5093640;28;20201;-63
2024/02/21 10:28:57;;;;;;;15.40;7.20;;;;;;;7.41;88.62;100504.84;5092711;28;20626;-60
2024/02/21 10:31:26;;;;;;;16.90;8.03;;;;;;;7.42;89.48;100497.16;5093087;28;20241;-62
2024/02/21 10:33:56;;;;;;;17.23;7.40;;;;;;;7.40;87.64;100497.97;5092768;28;20242;-62
2024/02/21 10:36:26;;;;;;;15.23;6.87;;;;;;;7.39;88.46;100494.56;5091410;28;20207;-61
2024/02/21 10:38:55;;;;;;;15.43;7.97;;;;;;;7.40;88.91;100504.00;5093480;28;20613;-62
2024/02/21 10:41:24;;;;;;;13.70;7.97;;;;;;;7.40;88.21;100493.72;5087023;28;20729;-60
2024/02/21 10:43:58;;;;;;;17.63;8.30;;;;;;;7.44;87.94;100494.63;5086156;28;20653;-62
2024/02/21 10:46:27;;;;;;;13.70;8.13;;;;;;;7.45;88.00;100491.19;5090116;28;20287;-59
2024/02/21 10:49:06;;;;;;;14.53;7.97;;;;;;;7.43;87.88;100492.88;5091112;28;20796;-63
2024/02/21 10:51:42;;;;;;;18.83;8.17;;;;;;;7.46;88.01;100493.75;5086156;28;20207;-60
2024/02/21 10:54:22;;;;;;;15.00;8.40;;;;;;;7.47;87.64;100484.38;5092932;28;20202;-57
2024/02/21 10:56:52;;;;;;;16.93;9.47;;;;;;;7.50;88.49;100479.25;5090092;28;20208;-57
2024/02/21 10:59:23;;;;;;;19.03;9.43;;;;;;;7.56;87.38;100471.63;5087837;28;20196;-59
2024/02/21 11:01:52;;;;;;;23.13;9.20;;;;;;;7.57;87.16;100469.91;5092624;28;20219;-62
2024/02/21 11:04:27;;;;;;;20.47;9.83;;;;;;;7.58;87.88;100462.22;5086934;28;20203;-63
2024/02/21 11:07:00;;;;;;;21.00;10.53;;;;;;;7.60;87.72;100460.53;5089443;28;20201;-60
2024/02/21 11:09:32;;;;;;;18.20;9.90;;;;;;;7.62;87.59;100453.72;5090138;28;20205;-59
2024/02/21 11:12:04;;;;;;;21.20;9.67;;;;;;;7.64;87.73;100452.03;5092556;28;20228;-60
2024/02/21 11:14:35;;;;;;;14.83;8.73;;;;;;;7.65;87.32;100448.59;5091500;28;20236;-59
2024/02/21 11:17:04;;;;;;;17.80;9.70;;;;;;;7.65;87.44;100456.28;5093591;28;20200;-62
2024/02/21 11:19:32;;;;;;;23.60;10.30;;;;;;;7.66;88.28;100447.78;5093452;28;20207;-59
2024/02/21 11:22:02;;;;;;;20.13;9.97;;;;;;;7.66;87.87;100449.47;5095369;28;20216;-59
2024/02/21 11:24:33;;;;;;;28.23;10.70;;;;;;;7.64;87.77;100443.47;5094142;28;20688;-58
2024/02/21 11:27:10;;;;;;;19.60;10.43;;;;;;;7.60;88.04;100437.47;5093070;28;20247;-60
2024/02/21 11:29:42;;;;;;;16.43;9.67;;;;;;;7.55;88.64;100440.81;5093024;28;20204;-61